createdAt,value
2018-05-14T00:00:25.686Z,21.2
2018-05-14T00:01:15.785Z,21.3
2018-05-14T00:02:05.296Z,21.3
2018-05-14T00:02:54.509Z,21.3
2018-05-14T00:03:45.657Z,21.3
2018-05-14T00:04:35.785Z,21.3
2018-05-14T00:05:25.789Z,21.3
2018-05-14T00:06:16.158Z,21.2
2018-05-14T00:07:05.609Z,21.2
2018-05-14T00:07:55.979Z,21.2
2018-05-14T00:08:46.079Z,21.2
2018-05-14T00:09:35.843Z,21.2
2018-05-14T00:10:26.346Z,21.3
2018-05-14T00:11:16.516Z,21.2
2018-05-14T00:12:06.544Z,21.2
2018-05-14T00:12:56.341Z,21.2
2018-05-14T00:13:46.966Z,21.3
2018-05-14T00:14:37.014Z,21.3
2018-05-14T00:15:25.746Z,21.3
2018-05-14T00:16:17.131Z,21.3
2018-05-14T00:17:06.671Z,21.3
2018-05-14T00:17:57.328Z,21.3
2018-05-14T00:18:47.031Z,21.2
2018-05-14T00:19:37.095Z,21.3
2018-05-14T00:20:27.293Z,21.3
2018-05-14T00:21:17.250Z,21.2
2018-05-14T00:22:07.345Z,21.2
2018-05-14T00:22:57.140Z,21.2
2018-05-14T00:23:46.577Z,21.2
2018-05-14T00:24:37.582Z,21.3
2018-05-14T00:25:27.018Z,21.3
2018-05-14T00:26:17.928Z,21.3
2018-05-14T00:27:07.431Z,21.3
2018-05-14T00:27:57.723Z,21.3
2018-05-14T00:28:47.805Z,21.3
2018-05-14T00:29:37.608Z,21.3
2018-05-14T00:30:27.378Z,21.3
2018-05-14T00:31:17.730Z,21.3
2018-05-14T00:32:08.366Z,21.3
2018-05-14T00:32:58.462Z,21.3
2018-05-14T00:33:48.215Z,21.3
2018-05-14T00:34:38.027Z,21.3
2018-05-14T00:35:28.617Z,21.3
2018-05-14T00:36:17.766Z,21.3
2018-05-14T00:37:08.252Z,21.3
2018-05-14T00:37:58.737Z,21.2
2018-05-14T00:38:48.592Z,21.3
2018-05-14T00:39:38.605Z,21.2
2018-05-14T00:40:28.137Z,21.2
2018-05-14T00:41:18.812Z,21.2
2018-05-14T00:42:08.528Z,21.2
2018-05-14T00:42:58.384Z,21.2
2018-05-14T00:43:48.406Z,21.2
2018-05-14T00:44:39.089Z,21.2
2018-05-14T00:45:29.364Z,21.2
2018-05-14T00:46:19.154Z,21.2
2018-05-14T00:47:08.937Z,21.2
2018-05-14T00:47:59.229Z,21.2
2018-05-14T00:48:49.071Z,21.2
2018-05-14T00:49:40.514Z,21.2
2018-05-14T00:50:29.729Z,21.3
2018-05-14T00:51:19.514Z,21.2
2018-05-14T00:52:09.273Z,21.3
2018-05-14T00:52:59.658Z,21.3
2018-05-14T00:53:49.691Z,21.2
2018-05-14T00:54:39.741Z,21.2
2018-05-14T00:55:29.799Z,21.3
2018-05-14T00:56:19.060Z,21.2
2018-05-14T00:57:10.205Z,21.3
2018-05-14T00:57:59.994Z,21.3
2018-05-14T00:58:49.505Z,21.2
2018-05-14T00:59:40.361Z,21.2
2018-05-14T01:00:29.661Z,21.2
2018-05-14T01:01:19.962Z,21.2
2018-05-14T01:02:10.605Z,21.2
2018-05-14T01:03:00.185Z,21.2
2018-05-14T01:03:50.431Z,21.2
2018-05-14T01:04:40.827Z,21.2
2018-05-14T01:05:30.845Z,21.2
2018-05-14T01:06:20.339Z,21.2
2018-05-14T01:07:10.693Z,21.2
2018-05-14T01:08:00.853Z,21.2
2018-05-14T01:13:50.627Z,21.2
2018-05-14T01:14:41.556Z,21.2
2018-05-14T01:34:43.108Z,21.1
2018-05-14T01:35:32.827Z,21.1
2018-05-14T01:36:23.000Z,21.1
2018-05-14T01:37:12.391Z,21.1
2018-05-14T01:38:02.782Z,21.1
2018-05-14T01:38:53.346Z,21.1
2018-05-14T01:39:42.860Z,21.1
2018-05-14T01:40:32.966Z,21.1
2018-05-14T01:41:23.582Z,21.1
2018-05-14T01:42:13.632Z,21.1
2018-05-14T01:43:03.648Z,21.1
2018-05-14T01:43:53.541Z,21.1
2018-05-14T01:45:33.634Z,21.1
2018-05-14T01:46:23.687Z,21.1
2018-05-14T01:47:13.193Z,21.1
2018-05-14T01:48:03.242Z,21.1
2018-05-14T01:48:53.849Z,21.1
2018-05-14T01:49:43.382Z,21.1
2018-05-14T01:50:33.964Z,21.1
2018-05-14T01:51:23.496Z,21.1
2018-05-14T01:52:13.840Z,21.1
2018-05-14T01:53:03.997Z,21.1
2018-05-14T01:53:53.945Z,21.1
2018-05-14T01:54:44.062Z,21.1
2018-05-14T01:55:34.589Z,21.1
2018-05-14T01:56:24.687Z,21.1
2018-05-14T01:57:14.710Z,21.1
2018-05-14T01:58:03.407Z,21.1
2018-05-14T01:58:54.567Z,21.1
2018-05-14T01:59:44.696Z,21.1
2018-05-14T02:00:34.747Z,21.1
2018-05-14T02:01:24.484Z,21.1
2018-05-14T02:02:14.534Z,21.1
2018-05-14T02:03:04.851Z,21.1
2018-05-14T02:03:55.052Z,21.1
2018-05-14T02:04:44.410Z,21.1
2018-05-14T02:05:34.491Z,21.1
2018-05-14T02:06:25.387Z,21.1
2018-05-14T02:07:15.184Z,21.1
2018-05-14T02:08:04.673Z,21.1
2018-05-14T02:08:55.035Z,21.1
2018-05-14T02:09:45.375Z,21.1
2018-05-14T02:10:35.734Z,21.1
2018-05-14T02:11:25.259Z,21.1
2018-05-14T02:12:15.939Z,21.1
2018-05-14T02:13:05.681Z,21.1
2018-05-14T02:13:55.700Z,21.1
2018-05-14T02:14:45.894Z,21.1
2018-05-14T02:15:35.856Z,21.1
2018-05-14T02:16:25.904Z,21.1
2018-05-14T02:17:15.961Z,21.1
2018-05-14T02:18:56.353Z,21.1
2018-05-14T02:19:46.121Z,21.1
2018-05-14T02:20:36.475Z,21.1
2018-05-14T02:21:26.341Z,21.1
2018-05-14T02:22:16.364Z,21.1
2018-05-14T02:23:05.822Z,21.1
2018-05-14T02:23:56.190Z,21.1
2018-05-14T02:24:46.238Z,21.1
2018-05-14T02:25:35.963Z,21.1
2018-05-14T02:26:26.628Z,21.1
2018-05-14T02:27:16.492Z,21.1
2018-05-14T02:28:07.075Z,21.1
2018-05-14T02:31:26.785Z,21.1
2018-05-14T02:33:06.045Z,21.1
2018-05-14T02:33:56.924Z,21.1
2018-05-14T02:38:07.586Z,21.1
2018-05-14T02:38:57.014Z,21.1
2018-05-14T02:39:47.361Z,21.1
2018-05-14T02:40:37.448Z,21.1
2018-05-14T02:41:27.260Z,21.1
2018-05-14T02:42:17.617Z,21.1
2018-05-14T02:43:08.046Z,21.1
2018-05-14T02:43:58.270Z,21.1
2018-05-14T02:44:48.314Z,21.1
2018-05-14T02:45:38.386Z,21.1
2018-05-14T02:46:27.859Z,21.1
2018-05-14T02:47:17.903Z,21.1
2018-05-14T02:48:08.027Z,21.1
2018-05-14T02:48:57.518Z,21.1
2018-05-14T02:49:48.736Z,21.1
2018-05-14T02:50:38.306Z,21.1
2018-05-14T02:51:28.527Z,21.1
2018-05-14T02:52:18.337Z,21.1
2018-05-14T02:53:08.680Z,21.1
2018-05-14T02:53:59.024Z,21.1
2018-05-14T02:54:48.601Z,21.1
2018-05-14T02:55:39.201Z,21.1
2018-05-14T02:56:29.199Z,21
2018-05-14T02:57:18.827Z,21
2018-05-14T02:58:09.314Z,21
2018-05-14T02:58:59.476Z,21
2018-05-14T02:59:48.900Z,21
2018-05-14T03:00:39.614Z,21
2018-05-14T03:01:29.574Z,21
2018-05-14T03:02:19.370Z,21
2018-05-14T03:03:09.143Z,21.1
2018-05-14T03:03:59.713Z,21.1
2018-05-14T03:04:49.252Z,21.1
2018-05-14T03:05:39.073Z,21.1
2018-05-14T03:06:29.396Z,21.1
2018-05-14T03:07:18.903Z,21.1
2018-05-14T03:08:09.546Z,21.1
2018-05-14T03:08:59.397Z,21.1
2018-05-14T03:09:49.910Z,21.1
2018-05-14T03:10:40.720Z,21
2018-05-14T03:11:30.025Z,21.1
2018-05-14T03:12:20.155Z,21.1
2018-05-14T03:13:09.617Z,21
2018-05-14T03:13:59.117Z,21
2018-05-14T03:14:50.543Z,21.1
2018-05-14T03:15:40.081Z,21
2018-05-14T03:16:30.702Z,21.1
2018-05-14T03:17:20.517Z,21
2018-05-14T03:18:10.553Z,21
2018-05-14T03:19:00.564Z,21.1
2018-05-14T03:19:50.620Z,21.1
2018-05-14T03:20:40.435Z,21.1
2018-05-14T03:21:30.809Z,21.1
2018-05-14T03:22:20.837Z,21.1
2018-05-14T03:23:11.124Z,21
2018-05-14T03:24:01.202Z,21
2018-05-14T03:24:50.739Z,21.1
2018-05-14T03:25:41.507Z,21.1
2018-05-14T03:26:31.121Z,21.1
2018-05-14T03:27:21.204Z,21
2018-05-14T03:28:11.344Z,21.1
2018-05-14T03:29:01.084Z,21.1
2018-05-14T03:29:51.664Z,21.1
2018-05-14T03:30:41.279Z,21.1
2018-05-14T03:31:31.936Z,21
2018-05-14T03:32:21.583Z,21
2018-05-14T03:33:11.912Z,21
2018-05-14T03:34:01.684Z,21
2018-05-14T03:34:52.045Z,21
2018-05-14T03:35:42.097Z,21
2018-05-14T03:36:32.187Z,21
2018-05-14T03:37:21.476Z,21
2018-05-14T03:38:12.026Z,21
2018-05-14T03:39:02.318Z,21
2018-05-14T03:39:52.417Z,21
2018-05-14T03:40:42.500Z,21
2018-05-14T03:41:32.295Z,21.1
2018-05-14T03:42:22.043Z,21
2018-05-14T03:43:12.638Z,21
2018-05-14T03:44:02.436Z,21
2018-05-14T03:44:52.486Z,21
2018-05-14T03:45:42.271Z,21.1
2018-05-14T03:46:33.006Z,21.1
2018-05-14T03:47:23.030Z,21.1
2018-05-14T03:48:12.207Z,21.1
2018-05-14T03:49:03.115Z,21.1
2018-05-14T03:49:52.720Z,21
2018-05-14T03:50:43.235Z,21
2018-05-14T03:51:33.030Z,21
2018-05-14T03:52:23.043Z,21
2018-05-14T03:53:13.396Z,21
2018-05-14T03:54:02.985Z,21
2018-05-14T03:54:53.003Z,21
2018-05-14T03:55:43.631Z,21
2018-05-14T03:56:33.154Z,21
2018-05-14T03:57:23.796Z,21
2018-05-14T03:58:13.349Z,21
2018-05-14T03:59:02.879Z,21
2018-05-14T03:59:53.136Z,21
2018-05-14T04:00:42.988Z,21
2018-05-14T04:01:33.058Z,21
2018-05-14T04:02:24.921Z,21
2018-05-14T04:03:12.703Z,21
2018-05-14T04:04:03.238Z,20.9
2018-05-14T04:04:52.992Z,21
2018-05-14T04:05:44.181Z,21
2018-05-14T04:06:33.796Z,21
2018-05-14T04:07:23.436Z,21
2018-05-14T04:08:13.541Z,20.9
2018-05-14T04:09:03.799Z,20.9
2018-05-14T04:09:54.392Z,21
2018-05-14T04:10:43.595Z,21
2018-05-14T04:11:34.244Z,21
2018-05-14T04:12:25.010Z,21
2018-05-14T04:13:14.954Z,20.9
2018-05-14T04:14:04.195Z,20.9
2018-05-14T04:14:54.488Z,20.9
2018-05-14T04:15:45.125Z,20.9
2018-05-14T04:16:35.667Z,21
2018-05-14T04:17:24.705Z,20.9
2018-05-14T04:18:15.320Z,21
2018-05-14T04:19:05.112Z,21
2018-05-14T04:19:54.600Z,21
2018-05-14T04:20:45.245Z,21
2018-05-14T04:21:34.750Z,21
2018-05-14T04:22:25.351Z,21
2018-05-14T04:23:14.855Z,20.9
2018-05-14T04:24:05.180Z,21
2018-05-14T04:24:55.853Z,20.9
2018-05-14T04:25:45.310Z,20.9
2018-05-14T04:26:34.554Z,20.9
2018-05-14T04:27:25.700Z,20.9
2018-05-14T04:28:15.738Z,20.9
2018-05-14T04:29:05.291Z,20.9
2018-05-14T04:29:55.619Z,20.9
2018-05-14T04:30:45.468Z,20.9
2018-05-14T04:31:34.992Z,20.9
2018-05-14T04:32:25.811Z,20.9
2018-05-14T04:33:15.867Z,20.9
2018-05-14T04:34:06.471Z,20.9
2018-05-14T04:34:55.479Z,20.9
2018-05-14T04:35:45.781Z,20.9
2018-05-14T04:36:36.142Z,20.9
2018-05-14T04:37:26.242Z,20.9
2018-05-14T04:38:16.278Z,20.9
2018-05-14T04:39:06.015Z,20.9
2018-05-14T04:39:57.026Z,20.9
2018-05-14T04:40:46.715Z,20.9
2018-05-14T04:41:36.768Z,20.9
2018-05-14T04:42:26.892Z,20.9
2018-05-14T04:43:16.596Z,20.9
2018-05-14T04:44:06.660Z,20.9
2018-05-14T04:44:57.021Z,21
2018-05-14T04:45:46.854Z,21
2018-05-14T04:46:36.585Z,20.9
2018-05-14T04:47:26.693Z,20.9
2018-05-14T04:48:16.430Z,20.9
2018-05-14T04:49:06.526Z,20.9
2018-05-14T04:49:57.437Z,20.9
2018-05-14T04:50:47.182Z,20.9
2018-05-14T04:51:36.753Z,20.9
2018-05-14T04:52:27.383Z,20.9
2018-05-14T04:53:17.696Z,20.9
2018-05-14T04:54:07.992Z,20.9
2018-05-14T04:54:57.826Z,20.9
2018-05-14T04:55:47.863Z,20.9
2018-05-14T04:56:37.634Z,20.9
2018-05-14T04:57:28.029Z,20.9
2018-05-14T04:58:17.839Z,20.9
2018-05-14T04:59:08.465Z,20.9
2018-05-14T04:59:58.448Z,20.9
2018-05-14T05:00:47.807Z,20.9
2018-05-14T05:01:36.954Z,20.9
2018-05-14T05:02:27.702Z,20.9
2018-05-14T05:03:18.183Z,20.9
2018-05-14T05:04:07.893Z,21
2018-05-14T05:04:58.901Z,20.9
2018-05-14T05:05:48.934Z,21
2018-05-14T05:06:38.422Z,20.9
2018-05-14T05:07:28.459Z,20.9
2018-05-14T05:08:18.556Z,21
2018-05-14T05:09:08.553Z,21
2018-05-14T05:09:58.600Z,20.9
2018-05-14T05:10:48.720Z,20.9
2018-05-14T05:11:39.639Z,20.9
2018-05-14T05:12:28.855Z,21
2018-05-14T05:13:18.642Z,20.9
2018-05-14T05:14:09.281Z,20.9
2018-05-14T05:14:59.040Z,20.9
2018-05-14T05:15:48.911Z,21
2018-05-14T05:16:39.465Z,21
2018-05-14T05:17:28.697Z,21
2018-05-14T05:18:19.295Z,21
2018-05-14T05:19:10.017Z,20.9
2018-05-14T05:19:59.417Z,20.9
2018-05-14T05:20:50.066Z,21
2018-05-14T05:21:37.920Z,20.9
2018-05-14T05:22:28.949Z,20.9
2018-05-14T05:23:20.307Z,20.9
2018-05-14T05:24:09.723Z,20.9
2018-05-14T05:24:59.217Z,20.9
2018-05-14T05:25:49.881Z,21
2018-05-14T05:26:40.207Z,21
2018-05-14T05:27:28.924Z,20.9
2018-05-14T05:28:20.404Z,20.9
2018-05-14T05:29:09.573Z,20.9
2018-05-14T05:29:59.676Z,20.9
2018-05-14T05:30:49.993Z,20.9
2018-05-14T05:31:40.282Z,20.9
2018-05-14T05:32:30.414Z,20.9
2018-05-14T05:33:20.197Z,20.9
2018-05-14T05:34:10.330Z,21
2018-05-14T05:35:01.059Z,21
2018-05-14T05:35:50.908Z,21
2018-05-14T05:36:40.640Z,21
2018-05-14T05:37:31.253Z,21
2018-05-14T05:38:21.015Z,21
2018-05-14T05:39:11.154Z,21
2018-05-14T05:40:00.607Z,21
2018-05-14T05:40:50.937Z,21
2018-05-14T05:41:40.992Z,21
2018-05-14T05:42:31.437Z,21
2018-05-14T05:43:21.415Z,21.1
2018-05-14T05:44:11.463Z,21.1
2018-05-14T05:45:01.533Z,21.1
2018-05-14T05:45:51.870Z,21.1
2018-05-14T05:46:41.354Z,21.1
2018-05-14T05:47:31.980Z,21.1
2018-05-14T05:48:21.460Z,21.1
2018-05-14T05:49:11.851Z,21.1
2018-05-14T05:50:01.655Z,21.1
2018-05-14T05:50:51.107Z,21.1
2018-05-14T05:51:40.890Z,21
2018-05-14T05:52:33.055Z,21.1
2018-05-14T05:53:21.859Z,21.1
2018-05-14T05:54:12.519Z,21.1
2018-05-14T05:55:02.037Z,21.1
2018-05-14T05:55:52.051Z,21.1
2018-05-14T05:56:41.618Z,21.1
2018-05-14T05:57:31.915Z,21.1
2018-05-14T05:58:21.727Z,21.1
2018-05-14T05:59:11.460Z,21.1
2018-05-14T06:00:02.442Z,21.1
2018-05-14T06:00:52.158Z,21.1
2018-05-14T06:01:43.122Z,21.1
2018-05-14T06:02:32.519Z,21.1
2018-05-14T06:03:22.412Z,21.1
2018-05-14T06:04:12.172Z,21.1
2018-05-14T06:05:53.358Z,21.1
2018-05-14T06:06:42.943Z,21.1
2018-05-14T06:07:32.652Z,21.1
2018-05-14T06:08:23.535Z,21.1
2018-05-14T06:09:13.623Z,21.1
2018-05-14T06:10:02.571Z,21.1
2018-05-14T06:10:53.266Z,21.1
2018-05-14T06:11:43.555Z,21.1
2018-05-14T06:12:32.752Z,21.1
2018-05-14T06:15:04.052Z,21
2018-05-14T06:15:53.630Z,21.1
2018-05-14T06:16:43.307Z,21.1
2018-05-14T06:19:13.785Z,21.3
2018-05-14T06:20:04.454Z,21.2
2018-05-14T06:20:53.919Z,21.2
2018-05-14T06:21:44.277Z,21.2
2018-05-14T06:22:34.689Z,21.3
2018-05-14T06:23:24.100Z,21.2
2018-05-14T06:24:14.210Z,21.2
2018-05-14T06:25:04.243Z,21.3
2018-05-14T06:25:54.020Z,21.3
2018-05-14T06:26:44.916Z,21.2
2018-05-14T06:27:34.449Z,21.2
2018-05-14T06:28:24.197Z,21.2
2018-05-14T06:29:14.625Z,21.3
2018-05-14T06:30:04.966Z,21.3
2018-05-14T06:30:54.996Z,21.3
2018-05-14T06:31:44.983Z,21.3
2018-05-14T06:32:34.714Z,21.3
2018-05-14T06:33:25.447Z,21.3
2018-05-14T06:34:15.231Z,21.3
2018-05-14T06:35:05.703Z,21.3
2018-05-14T06:35:55.706Z,21.3
2018-05-14T06:36:45.413Z,21.3
2018-05-14T06:37:35.478Z,21.3
2018-05-14T06:38:24.945Z,21.3
2018-05-14T06:39:14.508Z,21.3
2018-05-14T06:40:05.655Z,21.3
2018-05-14T06:40:55.715Z,21.3
2018-05-14T06:41:45.444Z,21.3
2018-05-14T06:42:34.998Z,21.3
2018-05-14T06:43:25.929Z,21.3
2018-05-14T06:44:16.622Z,21.3
2018-05-14T06:45:05.208Z,21.3
2018-05-14T06:45:55.121Z,21.3
2018-05-14T06:46:46.140Z,21.4
2018-05-14T06:47:35.943Z,21.4
2018-05-14T06:48:25.445Z,21.4
2018-05-14T06:49:16.668Z,21.3
2018-05-14T06:50:05.659Z,21.3
2018-05-14T06:50:55.882Z,21.3
2018-05-14T06:51:46.262Z,21.3
2018-05-14T06:52:36.315Z,21.4
2018-05-14T06:53:25.769Z,21.4
2018-05-14T06:54:16.892Z,21.4
2018-05-14T06:55:07.059Z,21.4
2018-05-14T06:55:56.617Z,21.4
2018-05-14T06:56:47.005Z,21.5
2018-05-14T06:57:36.405Z,21.5
2018-05-14T06:58:27.308Z,21.5
2018-05-14T06:59:17.392Z,21.5
2018-05-14T07:00:07.532Z,21.6
2018-05-14T07:00:56.728Z,21.6
2018-05-14T07:01:46.718Z,21.6
2018-05-14T07:02:37.143Z,21.6
2018-05-14T07:03:27.741Z,21.6
2018-05-14T07:04:17.919Z,21.6
2018-05-14T07:05:07.107Z,21.6
2018-05-14T07:05:57.922Z,21.6
2018-05-14T07:06:47.414Z,21.6
2018-05-14T07:07:38.189Z,21.7
2018-05-14T07:08:27.495Z,21.7
2018-05-14T07:09:17.298Z,21.7
2018-05-14T07:10:07.611Z,21.7
2018-05-14T07:10:58.057Z,21.7
2018-05-14T07:11:46.668Z,21.7
2018-05-14T07:12:38.099Z,21.7
2018-05-14T07:13:27.839Z,21.7
2018-05-14T07:14:17.086Z,21.8
2018-05-14T07:15:08.159Z,21.8
2018-05-14T07:15:58.544Z,21.8
2018-05-14T07:16:47.814Z,21.8
2018-05-14T07:17:38.871Z,21.8
2018-05-14T07:18:28.574Z,21.8
2018-05-14T07:19:19.028Z,21.8
2018-05-14T07:20:07.659Z,21.8
2018-05-14T07:20:58.168Z,21.8
2018-05-14T07:21:48.215Z,21.8
2018-05-14T07:22:38.867Z,21.8
2018-05-14T07:23:28.916Z,21.8
2018-05-14T07:24:18.703Z,21.8
2018-05-14T07:25:09.056Z,21.8
2018-05-14T07:25:58.535Z,21.8
2018-05-14T07:26:48.918Z,21.8
2018-05-14T07:27:38.420Z,21.8
2018-05-14T07:28:29.036Z,21.9
2018-05-14T07:29:19.656Z,21.9
2018-05-14T07:30:09.828Z,21.9
2018-05-14T07:30:59.208Z,21.9
2018-05-14T07:31:48.794Z,21.9
2018-05-14T07:32:39.376Z,21.9
2018-05-14T07:33:29.873Z,21.9
2018-05-14T07:34:19.415Z,21.9
2018-05-14T07:35:09.288Z,21.9
2018-05-14T07:35:59.098Z,21.9
2018-05-14T07:36:49.362Z,21.9
2018-05-14T07:37:40.184Z,21.9
2018-05-14T07:38:29.242Z,21.9
2018-05-14T07:39:20.588Z,21.9
2018-05-14T07:40:09.597Z,21.9
2018-05-14T07:40:59.365Z,21.9
2018-05-14T07:41:50.279Z,21.9
2018-05-14T07:42:40.320Z,22
2018-05-14T07:43:30.125Z,21.9
2018-05-14T07:44:20.581Z,22
2018-05-14T07:45:10.228Z,22
2018-05-14T07:46:00.988Z,22
2018-05-14T07:46:50.744Z,22.1
2018-05-14T07:47:40.987Z,22.1
2018-05-14T07:48:30.224Z,22.1
2018-05-14T07:49:21.066Z,22
2018-05-14T07:50:10.382Z,22
2018-05-14T07:51:00.648Z,22
2018-05-14T07:51:50.966Z,22
2018-05-14T07:52:40.946Z,22.1
2018-05-14T07:53:31.445Z,22.1
2018-05-14T07:54:21.585Z,22.1
2018-05-14T07:55:10.641Z,22.1
2018-05-14T07:56:00.578Z,22.1
2018-05-14T07:56:51.015Z,22.1
2018-05-14T07:57:40.417Z,22.1
2018-05-14T07:58:30.968Z,22.1
2018-05-14T07:59:21.457Z,22.1
2018-05-14T08:00:12.474Z,22.1
2018-05-14T08:01:00.426Z,22.1
2018-05-14T08:01:51.273Z,22.1
2018-05-14T08:02:41.376Z,22.1
2018-05-14T08:03:31.711Z,22.1
2018-05-14T08:04:22.014Z,22.1
2018-05-14T08:05:11.738Z,22.1
2018-05-14T08:06:02.149Z,22.1
2018-05-14T08:06:51.641Z,22.1
2018-05-14T08:07:42.224Z,22.1
2018-05-14T08:08:32.695Z,22.1
2018-05-14T08:09:21.704Z,22.1
2018-05-14T08:10:11.497Z,22.1
2018-05-14T08:11:02.537Z,22.2
2018-05-14T08:11:52.788Z,22.1
2018-05-14T08:12:41.588Z,22.2
2018-05-14T08:13:31.397Z,22.2
2018-05-14T08:14:22.481Z,22.2
2018-05-14T08:15:12.326Z,22.2
2018-05-14T08:16:01.777Z,22.3
2018-05-14T08:16:52.355Z,22.3
2018-05-14T08:17:41.653Z,22.2
2018-05-14T08:18:32.772Z,22.2
2018-05-14T08:19:22.028Z,22.1
2018-05-14T08:20:12.033Z,22.2
2018-05-14T08:21:01.624Z,22.2
2018-05-14T08:21:53.175Z,22.2
2018-05-14T08:22:41.500Z,22.3
2018-05-14T08:23:34.458Z,22.3
2018-05-14T08:24:23.340Z,22.3
2018-05-14T08:25:12.750Z,22.3
2018-05-14T08:26:02.182Z,22.3
2018-05-14T08:26:53.284Z,22.3
2018-05-14T08:27:43.246Z,22.3
2018-05-14T08:28:33.707Z,22.3
2018-05-14T08:29:22.905Z,22.3
2018-05-14T08:30:13.450Z,22.3
2018-05-14T08:31:04.010Z,22.3
2018-05-14T08:31:53.551Z,22.3
2018-05-14T08:32:42.800Z,22.3
2018-05-14T08:33:33.466Z,22.3
2018-05-14T08:34:23.897Z,22.3
2018-05-14T08:35:13.595Z,22.4
2018-05-14T08:36:03.434Z,22.4
2018-05-14T08:36:53.715Z,22.4
2018-05-14T08:37:43.472Z,22.4
2018-05-14T08:38:34.295Z,22.4
2018-05-14T08:39:24.361Z,22.4
2018-05-14T08:40:13.787Z,22.4
2018-05-14T08:41:03.748Z,22.4
2018-05-14T08:41:54.181Z,22.4
2018-05-14T08:42:43.237Z,22.4
2018-05-14T08:43:34.216Z,22.4
2018-05-14T08:44:24.466Z,22.4
2018-05-14T08:45:14.064Z,22.4
2018-05-14T08:46:04.969Z,22.4
2018-05-14T08:46:53.601Z,22.4
2018-05-14T08:47:44.336Z,22.4
2018-05-14T08:48:35.107Z,22.4
2018-05-14T08:49:24.716Z,22.4
2018-05-14T08:50:14.311Z,22.4
2018-05-14T08:51:04.454Z,22.4
2018-05-14T08:51:55.360Z,22.4
2018-05-14T08:52:44.596Z,22.5
2018-05-14T08:53:34.690Z,22.4
2018-05-14T08:54:27.187Z,22.4
2018-05-14T08:55:15.570Z,22.4
2018-05-14T08:56:05.087Z,22.4
2018-05-14T08:56:55.798Z,22.4
2018-05-14T08:57:47.105Z,22.4
2018-05-14T08:58:35.923Z,22.4
2018-05-14T08:59:25.608Z,22.4
2018-05-14T09:00:14.564Z,22.4
2018-05-14T09:01:05.825Z,22.4
2018-05-14T09:01:55.820Z,22.4
2018-05-14T09:02:45.583Z,22.4
2018-05-14T09:03:35.720Z,22.4
2018-05-14T09:04:24.549Z,22.4
2018-05-14T09:05:14.547Z,22.4
2018-05-14T09:06:06.294Z,22.4
2018-05-14T09:06:55.950Z,22.4
2018-05-14T09:07:46.258Z,22.4
2018-05-14T09:08:36.169Z,22.4
2018-05-14T09:09:26.453Z,22.4
2018-05-14T09:10:16.507Z,22.4
2018-05-14T09:11:06.799Z,22.4
2018-05-14T09:11:55.981Z,22.4
2018-05-14T09:12:46.594Z,22.4
2018-05-14T09:13:36.451Z,22.5
2018-05-14T09:14:27.014Z,22.4
2018-05-14T09:15:16.618Z,22.5
2018-05-14T09:16:06.580Z,22.5
2018-05-14T09:16:56.707Z,22.5
2018-05-14T09:17:46.723Z,22.5
2018-05-14T09:18:37.407Z,22.5
2018-05-14T09:19:28.659Z,22.5
2018-05-14T09:20:17.364Z,22.5
2018-05-14T09:21:07.542Z,22.5
2018-05-14T09:21:57.007Z,22.5
2018-05-14T09:22:47.346Z,22.5
2018-05-14T09:23:37.463Z,22.5
2018-05-14T09:24:27.821Z,22.6
2018-05-14T09:25:18.043Z,22.6
2018-05-14T09:26:07.830Z,22.6
2018-05-14T09:26:57.678Z,22.6
2018-05-14T09:27:47.781Z,22.6
2018-05-14T09:28:37.515Z,22.6
2018-05-14T09:29:27.054Z,22.6
2018-05-14T09:30:17.109Z,22.6
2018-05-14T09:31:08.494Z,22.6
2018-05-14T09:31:58.094Z,22.6
2018-05-14T09:32:47.908Z,22.6
2018-05-14T09:33:38.136Z,22.6
2018-05-14T09:34:29.050Z,22.6
2018-05-14T09:35:18.602Z,22.6
2018-05-14T09:36:07.818Z,22.6
2018-05-14T09:36:57.681Z,22.6
2018-05-14T09:37:48.991Z,22.6
2018-05-14T09:38:38.894Z,22.6
2018-05-14T09:39:28.139Z,22.6
2018-05-14T09:40:18.227Z,22.6
2018-05-14T09:41:08.561Z,22.6
2018-05-14T09:41:58.095Z,22.6
2018-05-14T09:42:48.598Z,22.6
2018-05-14T09:43:38.797Z,22.6
2018-05-14T09:44:29.393Z,22.6
2018-05-14T09:45:19.090Z,22.6
2018-05-14T09:46:08.887Z,22.6
2018-05-14T09:46:58.871Z,22.6
2018-05-14T09:47:49.592Z,22.5
2018-05-14T09:48:38.767Z,22.5
2018-05-14T09:49:29.304Z,22.5
2018-05-14T09:50:18.459Z,22.5
2018-05-14T09:51:09.248Z,22.5
2018-05-14T09:51:59.300Z,22.5
2018-05-14T09:52:49.830Z,22.5
2018-05-14T09:53:39.716Z,22.5
2018-05-14T09:54:29.316Z,22.5
2018-05-14T09:55:20.071Z,22.5
2018-05-14T09:56:08.502Z,22.5
2018-05-14T09:56:59.703Z,22.5
2018-05-14T09:57:49.466Z,22.5
2018-05-14T09:58:39.277Z,22.5
2018-05-14T09:59:29.531Z,22.5
2018-05-14T10:00:20.240Z,22.4
2018-05-14T10:01:09.754Z,22.4
2018-05-14T10:01:59.534Z,22.4
2018-05-14T10:02:50.626Z,22.4
2018-05-14T10:03:40.390Z,22.4
2018-05-14T10:04:29.710Z,22.4
2018-05-14T10:05:19.749Z,22.4
2018-05-14T10:06:10.592Z,22.4
2018-05-14T10:07:00.146Z,22.4
2018-05-14T10:07:51.309Z,22.4
2018-05-14T10:08:40.750Z,22.4
2018-05-14T10:09:30.278Z,22.3
2018-05-14T10:10:21.021Z,22.3
2018-05-14T10:11:10.017Z,22.3
2018-05-14T10:12:01.133Z,22.3
2018-05-14T10:12:51.432Z,22.3
2018-05-14T10:13:41.631Z,22.3
2018-05-14T10:14:31.012Z,22.3
2018-05-14T10:15:21.077Z,22.3
2018-05-14T10:16:11.756Z,22.3
2018-05-14T10:17:01.482Z,22.3
2018-05-14T10:17:52.158Z,22.3
2018-05-14T10:18:41.364Z,22.2
2018-05-14T10:19:31.922Z,22.2
2018-05-14T10:20:21.934Z,22.2
2018-05-14T10:21:11.868Z,22.2
2018-05-14T10:22:02.203Z,22.1
2018-05-14T10:22:52.072Z,22.2
2018-05-14T10:23:41.107Z,22.2
2018-05-14T10:24:31.566Z,22.1
2018-05-14T10:25:22.243Z,22.1
2018-05-14T10:26:12.659Z,22.2
2018-05-14T10:27:01.731Z,22.2
2018-05-14T10:27:51.766Z,22.2
2018-05-14T10:28:42.517Z,22.2
2018-05-14T10:29:33.295Z,22.1
2018-05-14T10:30:22.215Z,22.1
2018-05-14T10:31:12.507Z,22.2
2018-05-14T10:32:03.722Z,22.1
2018-05-14T10:32:53.111Z,22.1
2018-05-14T10:33:42.160Z,22.1
2018-05-14T10:34:33.067Z,22.1
2018-05-14T10:35:21.987Z,22.1
2018-05-14T10:36:12.453Z,22.1
2018-05-14T10:37:02.743Z,22.1
2018-05-14T10:37:52.981Z,22.2
2018-05-14T10:38:43.084Z,22.2
2018-05-14T10:39:33.417Z,22.1
2018-05-14T10:40:22.700Z,22.1
2018-05-14T10:41:12.464Z,22.1
2018-05-14T10:42:03.102Z,22.1
2018-05-14T10:42:53.744Z,22.1
2018-05-14T10:43:43.126Z,22.1
2018-05-14T10:44:33.810Z,22.1
2018-05-14T10:45:23.776Z,22.1
2018-05-14T10:46:13.283Z,22.1
2018-05-14T10:47:02.904Z,22.1
2018-05-14T10:47:54.607Z,22.1
2018-05-14T10:48:43.864Z,22.1
2018-05-14T10:49:34.231Z,22.1
2018-05-14T10:50:23.977Z,22.1
2018-05-14T10:51:13.809Z,22.1
2018-05-14T10:52:03.818Z,22.1
2018-05-14T10:52:54.653Z,22.1
2018-05-14T10:53:43.676Z,22.1
2018-05-14T10:54:33.737Z,22.1
2018-05-14T10:55:23.808Z,22.1
2018-05-14T10:56:14.142Z,22.1
2018-05-14T10:57:04.965Z,22.1
2018-05-14T10:57:54.286Z,22.1
2018-05-14T10:58:45.662Z,22.1
2018-05-14T10:59:34.676Z,22.1
2018-05-14T11:00:23.620Z,22.1
2018-05-14T11:01:14.732Z,22.1
2018-05-14T11:02:04.852Z,22.1
2018-05-14T11:02:55.180Z,22.1
2018-05-14T11:03:45.303Z,22.1
2018-05-14T11:04:34.221Z,22.1
2018-05-14T11:05:24.812Z,22.1
2018-05-14T11:06:14.888Z,22.1
2018-05-14T11:07:05.237Z,22.1
2018-05-14T11:07:54.993Z,22.1
2018-05-14T11:08:46.100Z,22.1
2018-05-14T11:09:36.203Z,22.1
2018-05-14T11:10:24.322Z,22.1
2018-05-14T11:11:15.598Z,22.1
2018-05-14T11:12:04.839Z,22.1
2018-05-14T11:12:55.861Z,22.1
2018-05-14T11:13:45.473Z,22.1
2018-05-14T11:14:34.958Z,22.1
2018-05-14T11:15:26.123Z,22.1
2018-05-14T11:16:15.696Z,22.1
2018-05-14T11:17:05.303Z,22.1
2018-05-14T11:17:55.855Z,22
2018-05-14T11:18:46.453Z,22
2018-05-14T11:19:35.036Z,22
2018-05-14T11:20:25.719Z,22
2018-05-14T11:21:15.476Z,22
2018-05-14T11:22:05.846Z,22
2018-05-14T11:22:56.496Z,22
2018-05-14T11:23:45.665Z,22
2018-05-14T11:24:36.866Z,22
2018-05-14T11:25:26.354Z,22
2018-05-14T11:26:16.473Z,22
2018-05-14T11:27:06.480Z,22
2018-05-14T11:27:55.983Z,22
2018-05-14T11:28:46.613Z,22
2018-05-14T11:29:36.463Z,22
2018-05-14T11:30:26.170Z,22
2018-05-14T11:31:15.352Z,22
2018-05-14T11:32:06.550Z,22
2018-05-14T11:32:57.531Z,22
2018-05-14T11:33:46.418Z,21.9
2018-05-14T11:34:37.702Z,21.9
2018-05-14T11:35:28.504Z,21.9
2018-05-14T11:36:17.723Z,21.9
2018-05-14T11:37:07.300Z,21.8
2018-05-14T11:37:57.464Z,21.8
2018-05-14T11:38:47.640Z,21.7
2018-05-14T11:39:37.708Z,21.6
2018-05-14T11:40:28.251Z,21.5
2018-05-14T11:41:18.270Z,21.5
2018-05-14T11:42:08.365Z,21.5
2018-05-14T11:42:58.154Z,21.4
2018-05-14T11:43:48.009Z,21.4
2018-05-14T11:44:37.866Z,21.4
2018-05-14T11:45:28.501Z,21.3
2018-05-14T11:46:18.520Z,21.3
2018-05-14T11:47:07.671Z,21.3
2018-05-14T11:47:58.233Z,21.4
2018-05-14T11:48:48.367Z,21.5
2018-05-14T11:49:38.893Z,21.6